AirNav   Duncan Aviation - Near you to keep you flying
 
 1084 users online  

KTNT Dade-Collier Training and Transition Airport
Miami, Florida, USA

GOING TO MIAMI?


FAA INFORMATION EFFECTIVE 03 NOVEMBER 2022

Location

FAA Identifier: TNT
Lat/Long: 25-51-42.5000N 080-53-49.2000W
25-51.708333N 080-53.820000W
25.8618056,-80.8970000
(estimated)
Elevation: 12.7 ft. / 3.9 m (surveyed)
Variation: 05W (2005)
From city: 36 miles W of MIAMI, FL
Time zone: UTC -5 (UTC -4 during Daylight Saving Time)
Zip code: 34141

Airport Operations

Airport use: Open to the public, ARPT CLSD TO PUBLIC EXCP BY ARRANGEMENT WITH MIAMI-DADE AVIATION DEPT MIAMI 305-869-1660.
Control tower: no
ARTCC: MIAMI CENTER
FSS: MIAMI FLIGHT SERVICE STATION
NOTAMs facility: MIA (NOTAM-D service available)
Attendance: 0830-1730
Wind indicator: lighted
Segmented circle: yes
Beacon: white-green (lighted land airport)
Operates sunset to sunrise.
Landing fee: yes

Airport Communications

CTAF/UNICOM: 123.0
WX AWOS-3: 119.075 (239-695-9198)
MIAMI APPROACH: 128.6
MIAMI DEPARTURE: 128.6

Nearby radio navigation aids

VOR radial/distance  VOR name  Freq  Var
DHPr281/29.8DOLPHIN VORTAC113.9004W

Airport Services

Airframe service: NONE
Powerplant service: NONE
Bottled oxygen: NONE
Bulk oxygen: NONE

Runway Information

Runway 9/27

Dimensions: 10499 x 150 ft. / 3200 x 46 m
Surface: asphalt/porous friction courses, in good condition
Weight bearing capacity: 
PCN 65 /F/A/X/T
Single wheel: 130.0
Double wheel: 200.0
Double tandem: 400.0
Dual double tandem: 800.0
Runway edge lights: high intensity
RUNWAY 9  RUNWAY 27
Latitude: 25-51.708232N25-51.707022N
Longitude: 080-54.777252W080-52.861753W
Elevation: 12.6 ft.12.4 ft.
Traffic pattern: leftright
Runway heading: 095 magnetic, 090 true275 magnetic, 270 true
Markings: precision, in fair conditionprecision, in fair condition
Touchdown point: yes, no lightsyes, no lights
Instrument approach: ILS
Obstructions: none26 ft. trees, 1075 ft. from runway, 290 ft. right of centerline, 34:1 slope to clear

Airport Ownership and Management from official FAA records

Ownership: Publicly-owned
Owner: MIAMI-DADE COUNTY
MIAMI-DADE AVIATION DEPARTMENT, PO BOX 025504
MIAMI, FL 33102-5504
Phone (305) 876-0464
Manager: ELVIN HERNANDEZ
14201 NW LEJEUNE RD
OPA-LOCKA, FL 33054
Phone (305) 869-1662
AIRPORT PHYSICAL ADDRESS: 54757 EAST TAMIAMI TRAIL, OCHOPPI, FL 34141 239-695-3300, FAX: 305-876-0565

Airport Operational Statistics

Aircraft operations: avg 40/day *
100% transient general aviation
* for 12-month period ending 10 October 2018

Additional Remarks

A100 ACR TRNG OPNS ONLY.
THREE 8IN WELLS FLUSH MTD BTN RWY AND TWY.
FEE FOR USE FOR ACFT OVER 12500 LBS.
MAEW IN BUFFER ISLAND BTN RY 09/27 & TWY.
WILDLIFE OCCASIONALLY ON & INVOF ARPT.
BE ALERT TO LOW FLYING NATIONAL PARK SVC ACFT ALL QUADRANTS.
NO NGT TIME OPNS EXC WITH PRIOR PMSN FM MIAMI-DADE AVN DEPT 305-869-1660.
FOR CD IF UNA TO CTC ON FSS FREQ, CTC MIAMI APCH AT 305-869-5432.

Instrument Procedures

NOTE: All procedures below are presented as PDF files. If you need a reader for these files, you should download the free Adobe Reader.

NOT FOR NAVIGATION. Please procure official charts for flight.
FAA instrument procedures published for use from 03 November 2022 at 0901Z to 01 December 2022 at 0900Z.

 
IAPs - Instrument Approach Procedures
RNAV (GPS) RWY 09   download (246KB)

Other nearby airports with instrument procedures:

KTMB - Miami Executive Airport (28 nm SE)
X51 - Miami Homestead General Aviation Airport (29 nm SE)
KMIA - Miami International Airport (33 nm E)
KOPF - Miami-Opa Locka Executive Airport (34 nm E)
KHST - Homestead Air Reserve Base (36 nm SE)
 
Loc | Ops | Rwys | IFR | FBO | Links
Com | Nav | Svcs | Stats | Notes

Reliance Aviation
AirBoss

 
Area around KTNT (Dade-Collier Training and Transition Airport)
 
Road maps at: MapQuest Bing Google
 
Aerial photo
WARNING: Photo may not be current or correct
Aerial photo of KTNT (Dade-Collier Training and Transition Airport)
Do you have a better or more recent aerial photo of Dade-Collier Training and Transition Airport that you would like to share? If so, please send us your photo.

 
Sectional chart

 
Airport distance calculator
Flying to Dade-Collier Training and Transition Airport? Find the distance to fly.

From to KTNT

Sunrise and sunset
Times for 26-Nov-2022
 Local
(UTC-5)
 Zulu
(UTC)
Morning civil twilight06:2611:26
Sunrise06:5111:51
Sunset17:3122:31
Evening civil twilight17:5622:56

Current date and time
Zulu (UTC)  26-Nov-2022 20:46:38
Local (UTC-5)  26-Nov-2022 15:46:38
 
METAR
KTMB 
28nm SE 
261953Z 12006KT 10SM FEW034 30/22 A2999 RMK AO2 SLP153 T03000222
KMIA 
32nm E 
261953Z 14009KT 10SM SCT030 BKN250 29/22 A2999 RMK AO2 SLP155 T02940222 $
KOPF 
33nm E 
261953Z 14011KT 10SM FEW032 30/21 A2999 RMK AO2 SLP157 T03000211
KHWO 
37nm E 
261953Z 12009KT 10SM SCT029 BKN037 29/22 A3000 RMK AO2 SLP159 T02940217
KHST 
37nm SE 
261955Z AUTO 13005KT 10SM FEW021 29/23 A2997 RMK AO2 SLP152 T02920226
KFLL 
42nm E 
261953Z 14009KT 10SM SCT022 BKN250 29/22 A2999 RMK AO2 SLP154 T02890222 $
KMKY 
43nm W 
261956Z AUTO VRB05KT 10SM CLR 29/22 A2999 RMK AO2 SLP156 T02890217 TSNO PNO $
KFXE 
43nm NE 
261953Z 13009KT 10SM FEW026 29/23 A2999 RMK AO2 SLP157 T02940228
KIMM 
44nm NW 
262035Z AUTO 00000KT 10SM SCT048 31/21 A2997 RMK AO2
KPMP 
48nm NE 
261953Z 14011KT 10SM CLR 29/23 A2999 RMK AO2 SLP156 T02890228
TAF
KTMB 
28nm SE 
261732Z 2618/2718 11007KT P6SM SCT025 BKN250 FM270100 VRB05KT P6SM FEW025 FM271500 19010KT P6SM SCT025 SCT060
KMIA 
32nm E 
261732Z 2618/2724 11007KT P6SM SCT025 BKN250 FM270300 VRB05KT P6SM FEW025 BKN250 FM271500 19010KT P6SM SCT025 SCT060
KOPF 
33nm E 
261732Z 2618/2718 11007KT P6SM SCT025 BKN250 FM270100 VRB05KT P6SM FEW025 FM271500 19010KT P6SM SCT025 SCT060
NOTAMs
Click for the latest NOTAMs
NOTAMs are issued by the DoD/FAA and will open in a separate window not controlled by AirNav.

 

 
 

Would you like to see your business listed on this page?

 If your business provides an interesting product or service to pilots, flight crews, aircraft, or users of the Dade-Collier Training and Transition Airport, you should consider listing it here.  To start the listing process, click on the button below
 
Add a business
 

Other Pages about Dade-Collier Training and Transition Airport

Update a link
 
Copyright © AirNav, LLC. All rights reserved. Privacy Policy  Contact